sensor_id;sensor_type;location;lat;lon;timestamp;P1;durP1;ratioP1;P2;durP2;ratioP2
39266;SDS011;24967;51.154;13.812;2023-09-19T00:02:18;1.60;;;1.50;;
39266;SDS011;24967;51.154;13.812;2023-09-19T00:04:46;1.98;;;1.70;;
39266;SDS011;24967;51.154;13.812;2023-09-19T00:07:13;2.55;;;1.58;;
39266;SDS011;24967;51.154;13.812;2023-09-19T00:09:41;2.42;;;1.73;;
39266;SDS011;24967;51.154;13.812;2023-09-19T00:12:09;2.13;;;1.90;;
39266;SDS011;24967;51.154;13.812;2023-09-19T00:14:38;2.42;;;1.70;;
39266;SDS011;24967;51.154;13.812;2023-09-19T00:17:05;2.17;;;1.73;;
39266;SDS011;24967;51.154;13.812;2023-09-19T00:19:33;3.95;;;2.10;;
39266;SDS011;24967;51.154;13.812;2023-09-19T00:22:01;3.85;;;2.30;;
39266;SDS011;24967;51.154;13.812;2023-09-19T00:24:27;3.83;;;2.00;;
39266;SDS011;24967;51.154;13.812;2023-09-19T00:26:54;3.20;;;2.03;;
39266;SDS011;24967;51.154;13.812;2023-09-19T00:29:21;5.85;;;2.78;;
39266;SDS011;24967;51.154;13.812;2023-09-19T00:31:48;3.05;;;2.10;;
39266;SDS011;24967;51.154;13.812;2023-09-19T00:34:15;1.90;;;1.80;;
39266;SDS011;24967;51.154;13.812;2023-09-19T00:36:41;3.08;;;2.45;;
39266;SDS011;24967;51.154;13.812;2023-09-19T00:39:09;3.28;;;1.90;;
39266;SDS011;24967;51.154;13.812;2023-09-19T00:41:36;2.70;;;2.50;;
39266;SDS011;24967;51.154;13.812;2023-09-19T00:44:03;2.42;;;2.15;;
39266;SDS011;24967;51.154;13.812;2023-09-19T00:46:30;2.13;;;2.03;;
39266;SDS011;24967;51.154;13.812;2023-09-19T00:48:57;3.53;;;2.03;;
39266;SDS011;24967;51.154;13.812;2023-09-19T00:51:24;3.25;;;2.15;;
39266;SDS011;24967;51.154;13.812;2023-09-19T00:53:52;2.20;;;2.00;;
39266;SDS011;24967;51.154;13.812;2023-09-19T00:56:21;1.90;;;1.80;;
39266;SDS011;24967;51.154;13.812;2023-09-19T00:58:48;1.88;;;1.75;;
39266;SDS011;24967;51.154;13.812;2023-09-19T01:01:14;2.35;;;2.15;;
39266;SDS011;24967;51.154;13.812;2023-09-19T01:03:42;2.53;;;1.73;;
39266;SDS011;24967;51.154;13.812;2023-09-19T01:06:08;2.83;;;2.10;;
39266;SDS011;24967;51.154;13.812;2023-09-19T01:08:35;1.80;;;1.65;;
39266;SDS011;24967;51.154;13.812;2023-09-19T01:11:04;2.20;;;1.90;;
39266;SDS011;24967;51.154;13.812;2023-09-19T01:13:42;2.00;;;1.90;;
39266;SDS011;24967;51.154;13.812;2023-09-19T01:16:16;1.80;;;1.70;;
39266;SDS011;24967;51.154;13.812;2023-09-19T01:18:54;2.00;;;1.90;;
39266;SDS011;24967;51.154;13.812;2023-09-19T01:21:28;1.80;;;1.70;;
39266;SDS011;24967;51.154;13.812;2023-09-19T01:24:07;2.80;;;1.85;;
39266;SDS011;24967;51.154;13.812;2023-09-19T01:27:02;4.18;;;2.33;;
39266;SDS011;24967;51.154;13.812;2023-09-19T01:29:45;4.70;;;2.22;;
39266;SDS011;24967;51.154;13.812;2023-09-19T01:32:15;3.33;;;2.30;;
39266;SDS011;24967;51.154;13.812;2023-09-19T01:34:47;5.18;;;2.22;;
39266;SDS011;24967;51.154;13.812;2023-09-19T01:37:15;3.42;;;1.83;;
39266;SDS011;24967;51.154;13.812;2023-09-19T01:39:45;4.60;;;2.63;;
39266;SDS011;24967;51.154;13.812;2023-09-19T01:42:17;5.15;;;2.42;;
39266;SDS011;24967;51.154;13.812;2023-09-19T01:44:51;2.70;;;1.95;;
39266;SDS011;24967;51.154;13.812;2023-09-19T01:47:26;3.83;;;2.40;;
39266;SDS011;24967;51.154;13.812;2023-09-19T01:50:01;2.80;;;2.08;;
39266;SDS011;24967;51.154;13.812;2023-09-19T01:52:36;1.90;;;1.70;;
39266;SDS011;24967;51.154;13.812;2023-09-19T01:55:10;3.97;;;1.60;;
39266;SDS011;24967;51.154;13.812;2023-09-19T01:57:44;3.70;;;1.80;;
39266;SDS011;24967;51.154;13.812;2023-09-19T02:00:18;2.45;;;1.90;;
39266;SDS011;24967;51.154;13.812;2023-09-19T02:02:50;2.40;;;1.83;;
39266;SDS011;24967;51.154;13.812;2023-09-19T02:05:21;1.70;;;1.60;;
39266;SDS011;24967;51.154;13.812;2023-09-19T02:07:49;4.63;;;1.63;;
39266;SDS011;24967;51.154;13.812;2023-09-19T02:10:16;3.97;;;1.75;;
39266;SDS011;24967;51.154;13.812;2023-09-19T02:12:43;1.88;;;1.77;;
39266;SDS011;24967;51.154;13.812;2023-09-19T02:15:10;2.58;;;1.48;;
39266;SDS011;24967;51.154;13.812;2023-09-19T02:17:37;1.77;;;1.58;;
39266;SDS011;24967;51.154;13.812;2023-09-19T02:20:05;2.78;;;1.38;;
39266;SDS011;24967;51.154;13.812;2023-09-19T02:22:39;1.25;;;1.15;;
39266;SDS011;24967;51.154;13.812;2023-09-19T02:25:06;2.63;;;1.67;;
39266;SDS011;24967;51.154;13.812;2023-09-19T02:27:33;2.03;;;1.58;;
39266;SDS011;24967;51.154;13.812;2023-09-19T02:30:00;3.70;;;1.45;;
39266;SDS011;24967;51.154;13.812;2023-09-19T02:32:29;1.67;;;1.23;;
39266;SDS011;24967;51.154;13.812;2023-09-19T02:34:56;4.47;;;1.30;;
39266;SDS011;24967;51.154;13.812;2023-09-19T02:37:25;1.90;;;1.27;;
39266;SDS011;24967;51.154;13.812;2023-09-19T02:39:51;3.50;;;1.55;;
39266;SDS011;24967;51.154;13.812;2023-09-19T02:42:18;1.23;;;1.17;;
39266;SDS011;24967;51.154;13.812;2023-09-19T02:44:44;1.40;;;1.30;;
39266;SDS011;24967;51.154;13.812;2023-09-19T02:47:12;1.80;;;1.20;;
39266;SDS011;24967;51.154;13.812;2023-09-19T02:49:40;2.10;;;1.38;;
39266;SDS011;24967;51.154;13.812;2023-09-19T02:52:07;1.05;;;1.05;;
39266;SDS011;24967;51.154;13.812;2023-09-19T02:54:36;1.30;;;1.10;;
39266;SDS011;24967;51.154;13.812;2023-09-19T02:57:04;3.65;;;1.35;;
39266;SDS011;24967;51.154;13.812;2023-09-19T02:59:32;1.50;;;1.40;;
39266;SDS011;24967;51.154;13.812;2023-09-19T03:01:58;2.80;;;1.40;;
39266;SDS011;24967;51.154;13.812;2023-09-19T03:04:25;1.92;;;1.10;;
39266;SDS011;24967;51.154;13.812;2023-09-19T03:06:53;1.90;;;0.93;;
39266;SDS011;24967;51.154;13.812;2023-09-19T03:09:23;3.47;;;1.40;;
39266;SDS011;24967;51.154;13.812;2023-09-19T03:11:51;2.55;;;1.17;;
39266;SDS011;24967;51.154;13.812;2023-09-19T03:14:19;3.08;;;1.23;;
39266;SDS011;24967;51.154;13.812;2023-09-19T03:16:46;2.22;;;1.50;;
39266;SDS011;24967;51.154;13.812;2023-09-19T03:19:12;1.33;;;1.23;;
39266;SDS011;24967;51.154;13.812;2023-09-19T03:21:40;1.90;;;1.10;;
39266;SDS011;24967;51.154;13.812;2023-09-19T03:24:06;2.92;;;0.98;;
39266;SDS011;24967;51.154;13.812;2023-09-19T03:26:33;1.42;;;1.10;;
39266;SDS011;24967;51.154;13.812;2023-09-19T03:29:02;1.02;;;0.93;;
39266;SDS011;24967;51.154;13.812;2023-09-19T03:31:31;0.80;;;0.80;;
39266;SDS011;24967;51.154;13.812;2023-09-19T03:33:58;1.40;;;1.20;;
39266;SDS011;24967;51.154;13.812;2023-09-19T03:36:24;0.80;;;0.80;;
39266;SDS011;24967;51.154;13.812;2023-09-19T03:38:53;3.95;;;1.00;;
39266;SDS011;24967;51.154;13.812;2023-09-19T03:41:19;1.88;;;1.10;;
39266;SDS011;24967;51.154;13.812;2023-09-19T03:43:46;0.80;;;0.80;;
39266;SDS011;24967;51.154;13.812;2023-09-19T03:46:14;2.60;;;1.00;;
39266;SDS011;24967;51.154;13.812;2023-09-19T03:48:40;1.58;;;0.75;;
39266;SDS011;24967;51.154;13.812;2023-09-19T03:51:07;2.85;;;0.93;;
39266;SDS011;24967;51.154;13.812;2023-09-19T03:53:34;0.80;;;0.80;;
39266;SDS011;24967;51.154;13.812;2023-09-19T03:56:00;1.15;;;1.10;;
39266;SDS011;24967;51.154;13.812;2023-09-19T03:58:27;1.10;;;0.90;;
39266;SDS011;24967;51.154;13.812;2023-09-19T04:00:54;1.17;;;1.08;;
39266;SDS011;24967;51.154;13.812;2023-09-19T04:03:22;2.47;;;0.88;;
39266;SDS011;24967;51.154;13.812;2023-09-19T04:05:49;1.50;;;1.30;;
39266;SDS011;24967;51.154;13.812;2023-09-19T04:08:16;1.95;;;1.00;;
39266;SDS011;24967;51.154;13.812;2023-09-19T04:10:42;1.35;;;1.00;;
39266;SDS011;24967;51.154;13.812;2023-09-19T04:13:10;2.78;;;0.93;;
39266;SDS011;24967;51.154;13.812;2023-09-19T04:15:37;3.13;;;1.20;;
39266;SDS011;24967;51.154;13.812;2023-09-19T04:18:05;1.25;;;1.15;;
39266;SDS011;24967;51.154;13.812;2023-09-19T04:20:33;1.45;;;1.35;;
39266;SDS011;24967;51.154;13.812;2023-09-19T04:22:59;1.27;;;1.17;;
39266;SDS011;24967;51.154;13.812;2023-09-19T04:25:26;4.50;;;1.17;;
39266;SDS011;24967;51.154;13.812;2023-09-19T04:27:52;3.30;;;1.45;;
39266;SDS011;24967;51.154;13.812;2023-09-19T04:30:19;1.48;;;1.38;;
39266;SDS011;24967;51.154;13.812;2023-09-19T04:32:46;2.15;;;1.20;;
39266;SDS011;24967;51.154;13.812;2023-09-19T04:35:15;0.95;;;0.95;;
39266;SDS011;24967;51.154;13.812;2023-09-19T04:37:43;2.35;;;0.88;;
39266;SDS011;24967;51.154;13.812;2023-09-19T04:40:09;1.77;;;1.15;;
39266;SDS011;24967;51.154;13.812;2023-09-19T04:42:38;1.58;;;0.80;;
39266;SDS011;24967;51.154;13.812;2023-09-19T04:45:06;1.02;;;1.00;;
39266;SDS011;24967;51.154;13.812;2023-09-19T04:47:34;1.98;;;1.35;;
39266;SDS011;24967;51.154;13.812;2023-09-19T04:50:05;1.45;;;1.20;;
39266;SDS011;24967;51.154;13.812;2023-09-19T04:52:36;1.60;;;1.10;;
39266;SDS011;24967;51.154;13.812;2023-09-19T04:55:06;1.17;;;1.00;;
39266;SDS011;24967;51.154;13.812;2023-09-19T04:57:33;1.48;;;1.35;;
39266;SDS011;24967;51.154;13.812;2023-09-19T04:59:59;3.35;;;1.33;;
39266;SDS011;24967;51.154;13.812;2023-09-19T05:02:28;2.83;;;1.30;;
39266;SDS011;24967;51.154;13.812;2023-09-19T05:04:55;1.40;;;1.30;;
39266;SDS011;24967;51.154;13.812;2023-09-19T05:07:24;5.22;;;1.30;;
39266;SDS011;24967;51.154;13.812;2023-09-19T05:09:51;1.90;;;1.05;;
39266;SDS011;24967;51.154;13.812;2023-09-19T05:12:18;1.25;;;1.00;;
39266;SDS011;24967;51.154;13.812;2023-09-19T05:14:45;2.88;;;1.60;;
39266;SDS011;24967;51.154;13.812;2023-09-19T05:17:12;1.75;;;1.20;;
39266;SDS011;24967;51.154;13.812;2023-09-19T05:19:42;2.40;;;1.00;;
39266;SDS011;24967;51.154;13.812;2023-09-19T05:22:08;0.93;;;0.93;;
39266;SDS011;24967;51.154;13.812;2023-09-19T05:24:35;2.47;;;1.30;;
39266;SDS011;24967;51.154;13.812;2023-09-19T05:27:01;1.35;;;1.25;;
39266;SDS011;24967;51.154;13.812;2023-09-19T05:29:31;2.35;;;1.00;;
39266;SDS011;24967;51.154;13.812;2023-09-19T05:31:58;3.78;;;1.10;;
39266;SDS011;24967;51.154;13.812;2023-09-19T05:34:25;3.50;;;1.98;;
39266;SDS011;24967;51.154;13.812;2023-09-19T05:36:53;4.85;;;1.27;;
39266;SDS011;24967;51.154;13.812;2023-09-19T05:39:19;1.27;;;1.15;;
39266;SDS011;24967;51.154;13.812;2023-09-19T05:41:46;2.58;;;1.08;;
39266;SDS011;24967;51.154;13.812;2023-09-19T05:44:13;2.28;;;1.20;;
39266;SDS011;24967;51.154;13.812;2023-09-19T05:46:41;2.25;;;1.30;;
39266;SDS011;24967;51.154;13.812;2023-09-19T05:49:07;3.42;;;1.10;;
39266;SDS011;24967;51.154;13.812;2023-09-19T05:51:34;1.52;;;1.20;;
39266;SDS011;24967;51.154;13.812;2023-09-19T05:54:00;1.10;;;1.00;;
39266;SDS011;24967;51.154;13.812;2023-09-19T05:56:27;2.08;;;1.25;;
39266;SDS011;24967;51.154;13.812;2023-09-19T05:58:53;2.58;;;1.13;;
39266;SDS011;24967;51.154;13.812;2023-09-19T06:01:20;2.55;;;1.27;;
39266;SDS011;24967;51.154;13.812;2023-09-19T06:03:48;3.42;;;1.55;;
39266;SDS011;24967;51.154;13.812;2023-09-19T06:06:16;5.20;;;1.15;;
39266;SDS011;24967;51.154;13.812;2023-09-19T06:08:42;1.30;;;1.20;;
39266;SDS011;24967;51.154;13.812;2023-09-19T06:11:09;2.35;;;1.38;;
39266;SDS011;24967;51.154;13.812;2023-09-19T06:13:36;2.50;;;1.30;;
39266;SDS011;24967;51.154;13.812;2023-09-19T06:16:04;0.88;;;0.88;;
39266;SDS011;24967;51.154;13.812;2023-09-19T06:18:30;1.20;;;1.10;;
39266;SDS011;24967;51.154;13.812;2023-09-19T06:21:00;4.15;;;1.08;;
39266;SDS011;24967;51.154;13.812;2023-09-19T06:23:30;2.17;;;1.30;;
39266;SDS011;24967;51.154;13.812;2023-09-19T06:25:57;3.10;;;1.20;;
39266;SDS011;24967;51.154;13.812;2023-09-19T06:28:23;2.97;;;1.50;;
39266;SDS011;24967;51.154;13.812;2023-09-19T06:30:50;0.88;;;0.88;;
39266;SDS011;24967;51.154;13.812;2023-09-19T06:33:17;1.00;;;0.90;;
39266;SDS011;24967;51.154;13.812;2023-09-19T06:35:45;1.42;;;1.33;;
39266;SDS011;24967;51.154;13.812;2023-09-19T06:38:13;1.88;;;1.40;;
39266;SDS011;24967;51.154;13.812;2023-09-19T06:40:40;2.38;;;1.05;;
39266;SDS011;24967;51.154;13.812;2023-09-19T06:43:09;1.30;;;1.20;;
39266;SDS011;24967;51.154;13.812;2023-09-19T06:45:36;1.08;;;0.98;;
39266;SDS011;24967;51.154;13.812;2023-09-19T06:48:02;1.00;;;0.90;;
39266;SDS011;24967;51.154;13.812;2023-09-19T06:50:30;1.50;;;1.00;;
39266;SDS011;24967;51.154;13.812;2023-09-19T06:52:58;1.88;;;0.80;;
39266;SDS011;24967;51.154;13.812;2023-09-19T06:55:26;3.72;;;1.15;;
39266;SDS011;24967;51.154;13.812;2023-09-19T06:57:56;3.17;;;0.80;;
39266;SDS011;24967;51.154;13.812;2023-09-19T07:00:23;3.22;;;0.90;;
39266;SDS011;24967;51.154;13.812;2023-09-19T07:02:57;1.55;;;0.90;;
39266;SDS011;24967;51.154;13.812;2023-09-19T07:05:26;2.42;;;1.10;;
39266;SDS011;24967;51.154;13.812;2023-09-19T07:07:53;1.98;;;0.80;;
39266;SDS011;24967;51.154;13.812;2023-09-19T07:10:20;1.23;;;1.02;;
39266;SDS011;24967;51.154;13.812;2023-09-19T07:12:54;1.55;;;0.90;;
39266;SDS011;24967;51.154;13.812;2023-09-19T07:15:21;1.58;;;1.10;;
39266;SDS011;24967;51.154;13.812;2023-09-19T07:17:48;1.63;;;1.15;;
39266;SDS011;24967;51.154;13.812;2023-09-19T07:20:15;1.15;;;1.05;;
39266;SDS011;24967;51.154;13.812;2023-09-19T07:22:41;1.25;;;1.15;;
39266;SDS011;24967;51.154;13.812;2023-09-19T07:25:08;1.67;;;0.93;;
39266;SDS011;24967;51.154;13.812;2023-09-19T07:27:34;0.80;;;0.80;;
39266;SDS011;24967;51.154;13.812;2023-09-19T07:30:02;1.30;;;1.08;;
39266;SDS011;24967;51.154;13.812;2023-09-19T07:32:30;1.05;;;1.00;;
39266;SDS011;24967;51.154;13.812;2023-09-19T07:34:57;1.60;;;0.85;;
39266;SDS011;24967;51.154;13.812;2023-09-19T07:37:24;1.45;;;0.80;;
39266;SDS011;24967;51.154;13.812;2023-09-19T07:39:50;2.15;;;0.88;;
39266;SDS011;24967;51.154;13.812;2023-09-19T07:42:17;0.98;;;0.70;;
39266;SDS011;24967;51.154;13.812;2023-09-19T07:44:44;1.27;;;0.80;;
39266;SDS011;24967;51.154;13.812;2023-09-19T07:47:13;0.90;;;0.90;;
39266;SDS011;24967;51.154;13.812;2023-09-19T07:49:40;0.80;;;0.68;;
39266;SDS011;24967;51.154;13.812;2023-09-19T07:52:07;2.63;;;0.90;;
39266;SDS011;24967;51.154;13.812;2023-09-19T07:54:34;2.80;;;1.00;;
39266;SDS011;24967;51.154;13.812;2023-09-19T07:57:01;0.90;;;0.75;;
39266;SDS011;24967;51.154;13.812;2023-09-19T07:59:27;3.17;;;0.80;;
39266;SDS011;24967;51.154;13.812;2023-09-19T08:01:54;0.80;;;0.80;;
39266;SDS011;24967;51.154;13.812;2023-09-19T08:04:22;1.85;;;0.88;;
39266;SDS011;24967;51.154;13.812;2023-09-19T08:06:50;1.08;;;0.57;;
39266;SDS011;24967;51.154;13.812;2023-09-19T08:09:18;0.80;;;0.80;;
39266;SDS011;24967;51.154;13.812;2023-09-19T08:11:45;1.08;;;0.57;;
39266;SDS011;24967;51.154;13.812;2023-09-19T08:14:12;1.20;;;0.90;;
39266;SDS011;24967;51.154;13.812;2023-09-19T08:16:39;1.80;;;0.93;;
39266;SDS011;24967;51.154;13.812;2023-09-19T08:19:07;0.88;;;0.80;;
39266;SDS011;24967;51.154;13.812;2023-09-19T08:21:37;1.45;;;0.80;;
39266;SDS011;24967;51.154;13.812;2023-09-19T08:24:04;1.23;;;0.65;;
39266;SDS011;24967;51.154;13.812;2023-09-19T08:26:31;1.38;;;0.82;;
39266;SDS011;24967;51.154;13.812;2023-09-19T08:28:57;1.60;;;1.00;;
39266;SDS011;24967;51.154;13.812;2023-09-19T08:31:24;1.15;;;0.60;;
39266;SDS011;24967;51.154;13.812;2023-09-19T08:33:51;1.70;;;1.00;;
39266;SDS011;24967;51.154;13.812;2023-09-19T08:36:18;3.50;;;0.98;;
39266;SDS011;24967;51.154;13.812;2023-09-19T08:38:46;1.65;;;0.80;;
39266;SDS011;24967;51.154;13.812;2023-09-19T08:41:14;1.48;;;0.80;;
39266;SDS011;24967;51.154;13.812;2023-09-19T08:43:43;0.60;;;0.60;;
39266;SDS011;24967;51.154;13.812;2023-09-19T08:46:14;1.10;;;0.80;;
39266;SDS011;24967;51.154;13.812;2023-09-19T08:48:45;2.47;;;0.80;;
39266;SDS011;24967;51.154;13.812;2023-09-19T08:51:17;0.68;;;0.55;;
39266;SDS011;24967;51.154;13.812;2023-09-19T08:53:50;0.70;;;0.70;;
39266;SDS011;24967;51.154;13.812;2023-09-19T08:56:18;0.73;;;0.73;;
39266;SDS011;24967;51.154;13.812;2023-09-19T08:58:46;1.10;;;0.75;;
39266;SDS011;24967;51.154;13.812;2023-09-19T09:01:15;1.10;;;1.10;;
39266;SDS011;24967;51.154;13.812;2023-09-19T09:03:43;1.63;;;0.98;;
39266;SDS011;24967;51.154;13.812;2023-09-19T09:06:13;1.05;;;0.70;;
39266;SDS011;24967;51.154;13.812;2023-09-19T09:08:40;2.13;;;0.80;;
39266;SDS011;24967;51.154;13.812;2023-09-19T09:11:09;1.17;;;0.90;;
39266;SDS011;24967;51.154;13.812;2023-09-19T09:13:36;1.70;;;0.70;;
39266;SDS011;24967;51.154;13.812;2023-09-19T09:16:04;1.90;;;0.80;;
39266;SDS011;24967;51.154;13.812;2023-09-19T09:18:30;1.98;;;0.80;;
39266;SDS011;24967;51.154;13.812;2023-09-19T09:20:57;1.98;;;0.57;;
39266;SDS011;24967;51.154;13.812;2023-09-19T09:23:23;2.05;;;0.63;;
39266;SDS011;24967;51.154;13.812;2023-09-19T09:25:51;0.60;;;0.60;;
39266;SDS011;24967;51.154;13.812;2023-09-19T09:28:26;1.48;;;0.88;;
39266;SDS011;24967;51.154;13.812;2023-09-19T09:30:53;1.65;;;0.80;;
39266;SDS011;24967;51.154;13.812;2023-09-19T09:33:21;1.40;;;0.70;;
39266;SDS011;24967;51.154;13.812;2023-09-19T09:35:49;2.08;;;0.70;;
39266;SDS011;24967;51.154;13.812;2023-09-19T09:38:22;3.03;;;0.70;;
39266;SDS011;24967;51.154;13.812;2023-09-19T09:40:52;0.60;;;0.60;;
39266;SDS011;24967;51.154;13.812;2023-09-19T09:43:26;3.65;;;0.70;;
39266;SDS011;24967;51.154;13.812;2023-09-19T09:46:08;0.65;;;0.57;;
39266;SDS011;24967;51.154;13.812;2023-09-19T09:48:58;1.23;;;0.70;;
39266;SDS011;24967;51.154;13.812;2023-09-19T09:51:45;2.65;;;0.65;;
39266;SDS011;24967;51.154;13.812;2023-09-19T09:54:22;0.80;;;0.80;;
39266;SDS011;24967;51.154;13.812;2023-09-19T09:56:53;1.00;;;0.73;;
39266;SDS011;24967;51.154;13.812;2023-09-19T09:59:34;2.83;;;0.80;;
39266;SDS011;24967;51.154;13.812;2023-09-19T10:02:11;1.92;;;0.90;;
39266;SDS011;24967;51.154;13.812;2023-09-19T10:04:38;1.00;;;0.52;;
39266;SDS011;24967;51.154;13.812;2023-09-19T10:07:23;2.20;;;1.02;;
39266;SDS011;24967;51.154;13.812;2023-09-19T10:09:57;1.27;;;0.70;;
39266;SDS011;24967;51.154;13.812;2023-09-19T10:12:36;0.65;;;0.63;;
39266;SDS011;24967;51.154;13.812;2023-09-19T10:15:09;0.50;;;0.50;;
39266;SDS011;24967;51.154;13.812;2023-09-19T10:17:40;1.20;;;0.93;;
39266;SDS011;24967;51.154;13.812;2023-09-19T10:20:10;2.08;;;0.90;;
39266;SDS011;24967;51.154;13.812;2023-09-19T10:22:52;1.40;;;1.00;;
39266;SDS011;24967;51.154;13.812;2023-09-19T10:27:51;0.82;;;0.82;;
39266;SDS011;24967;51.154;13.812;2023-09-19T10:30:21;3.97;;;0.77;;
39266;SDS011;24967;51.154;13.812;2023-09-19T10:32:51;3.65;;;0.80;;
39266;SDS011;24967;51.154;13.812;2023-09-19T10:35:24;3.20;;;0.77;;
39266;SDS011;24967;51.154;13.812;2023-09-19T10:37:51;1.15;;;1.00;;
39266;SDS011;24967;51.154;13.812;2023-09-19T10:40:21;0.50;;;0.40;;
39266;SDS011;24967;51.154;13.812;2023-09-19T10:42:55;0.80;;;0.80;;
39266;SDS011;24967;51.154;13.812;2023-09-19T10:45:33;3.53;;;0.70;;
39266;SDS011;24967;51.154;13.812;2023-09-19T10:48:01;1.08;;;0.70;;
39266;SDS011;24967;51.154;13.812;2023-09-19T10:50:31;0.80;;;0.80;;
39266;SDS011;24967;51.154;13.812;2023-09-19T10:53:00;1.40;;;0.70;;
39266;SDS011;24967;51.154;13.812;2023-09-19T10:55:32;1.38;;;0.75;;
39266;SDS011;24967;51.154;13.812;2023-09-19T10:58:00;1.50;;;0.95;;
39266;SDS011;24967;51.154;13.812;2023-09-19T11:00:29;2.60;;;0.90;;
39266;SDS011;24967;51.154;13.812;2023-09-19T11:03:17;2.15;;;0.95;;
39266;SDS011;24967;51.154;13.812;2023-09-19T11:06:00;1.05;;;1.05;;
39266;SDS011;24967;51.154;13.812;2023-09-19T11:08:53;2.33;;;0.93;;
39266;SDS011;24967;51.154;13.812;2023-09-19T11:20:17;1.08;;;0.82;;
39266;SDS011;24967;51.154;13.812;2023-09-19T11:25:51;1.23;;;1.23;;
39266;SDS011;24967;51.154;13.812;2023-09-19T11:28:29;1.58;;;1.48;;
39266;SDS011;24967;51.154;13.812;2023-09-19T11:30:56;1.55;;;1.20;;
39266;SDS011;24967;51.154;13.812;2023-09-19T11:33:24;2.38;;;1.10;;
39266;SDS011;24967;51.154;13.812;2023-09-19T11:36:01;1.73;;;0.90;;
39266;SDS011;24967;51.154;13.812;2023-09-19T11:41:38;2.63;;;1.15;;
39266;SDS011;24967;51.154;13.812;2023-09-19T11:46:58;1.65;;;1.30;;
39266;SDS011;24967;51.154;13.812;2023-09-19T11:49:29;2.10;;;1.10;;
39266;SDS011;24967;51.154;13.812;2023-09-19T11:51:58;2.40;;;1.40;;
39266;SDS011;24967;51.154;13.812;2023-09-19T11:54:29;2.92;;;1.30;;
39266;SDS011;24967;51.154;13.812;2023-09-19T11:56:58;2.13;;;1.08;;
39266;SDS011;24967;51.154;13.812;2023-09-19T11:59:25;1.35;;;1.17;;
39266;SDS011;24967;51.154;13.812;2023-09-19T12:01:55;1.55;;;1.25;;
39266;SDS011;24967;51.154;13.812;2023-09-19T12:04:36;1.52;;;1.25;;
39266;SDS011;24967;51.154;13.812;2023-09-19T12:07:05;1.52;;;0.90;;
39266;SDS011;24967;51.154;13.812;2023-09-19T12:09:36;3.85;;;3.65;;
39266;SDS011;24967;51.154;13.812;2023-09-19T12:12:06;3.13;;;1.27;;
39266;SDS011;24967;51.154;13.812;2023-09-19T12:14:34;1.77;;;1.23;;
39266;SDS011;24967;51.154;13.812;2023-09-19T12:17:01;3.10;;;1.75;;
39266;SDS011;24967;51.154;13.812;2023-09-19T12:19:28;2.75;;;1.20;;
39266;SDS011;24967;51.154;13.812;2023-09-19T12:21:55;1.02;;;1.02;;
39266;SDS011;24967;51.154;13.812;2023-09-19T12:24:30;1.98;;;0.85;;
39266;SDS011;24967;51.154;13.812;2023-09-19T12:27:01;1.15;;;0.90;;
39266;SDS011;24967;51.154;13.812;2023-09-19T12:29:30;0.90;;;0.90;;
39266;SDS011;24967;51.154;13.812;2023-09-19T12:31:59;2.30;;;1.30;;
39266;SDS011;24967;51.154;13.812;2023-09-19T12:34:29;5.35;;;1.40;;
39266;SDS011;24967;51.154;13.812;2023-09-19T12:37:09;1.17;;;1.10;;
39266;SDS011;24967;51.154;13.812;2023-09-19T12:39:47;1.10;;;1.00;;
39266;SDS011;24967;51.154;13.812;2023-09-19T12:42:16;1.00;;;0.80;;
39266;SDS011;24967;51.154;13.812;2023-09-19T12:44:44;1.02;;;1.02;;
39266;SDS011;24967;51.154;13.812;2023-09-19T12:47:12;2.75;;;1.10;;
39266;SDS011;24967;51.154;13.812;2023-09-19T12:52:42;1.40;;;1.27;;
39266;SDS011;24967;51.154;13.812;2023-09-19T12:55:26;0.88;;;0.88;;
39266;SDS011;24967;51.154;13.812;2023-09-19T12:57:59;0.70;;;0.70;;
39266;SDS011;24967;51.154;13.812;2023-09-19T13:00:34;1.00;;;1.00;;
39266;SDS011;24967;51.154;13.812;2023-09-19T13:03:17;0.90;;;0.90;;
39266;SDS011;24967;51.154;13.812;2023-09-19T13:05:51;1.10;;;1.00;;
39266;SDS011;24967;51.154;13.812;2023-09-19T13:08:23;3.03;;;1.20;;
39266;SDS011;24967;51.154;13.812;2023-09-19T13:11:05;1.10;;;1.10;;
39266;SDS011;24967;51.154;13.812;2023-09-19T13:13:34;1.42;;;1.33;;
39266;SDS011;24967;51.154;13.812;2023-09-19T13:16:02;1.17;;;0.98;;
39266;SDS011;24967;51.154;13.812;2023-09-19T13:18:32;1.27;;;1.13;;
39266;SDS011;24967;51.154;13.812;2023-09-19T13:21:07;2.05;;;1.20;;
39266;SDS011;24967;51.154;13.812;2023-09-19T13:23:37;0.80;;;0.80;;
39266;SDS011;24967;51.154;13.812;2023-09-19T13:26:05;1.10;;;1.00;;
39266;SDS011;24967;51.154;13.812;2023-09-19T13:28:31;1.80;;;0.85;;
39266;SDS011;24967;51.154;13.812;2023-09-19T13:30:59;1.98;;;0.95;;
39266;SDS011;24967;51.154;13.812;2023-09-19T13:33:26;1.58;;;1.17;;
39266;SDS011;24967;51.154;13.812;2023-09-19T13:35:53;2.28;;;0.95;;
39266;SDS011;24967;51.154;13.812;2023-09-19T13:38:20;1.08;;;0.98;;
39266;SDS011;24967;51.154;13.812;2023-09-19T13:40:47;1.33;;;1.00;;
39266;SDS011;24967;51.154;13.812;2023-09-19T13:43:16;1.92;;;1.08;;
39266;SDS011;24967;51.154;13.812;2023-09-19T13:45:42;3.90;;;1.00;;
39266;SDS011;24967;51.154;13.812;2023-09-19T13:48:08;2.28;;;0.90;;
39266;SDS011;24967;51.154;13.812;2023-09-19T13:50:36;1.42;;;0.90;;
39266;SDS011;24967;51.154;13.812;2023-09-19T13:53:07;1.42;;;0.90;;
39266;SDS011;24967;51.154;13.812;2023-09-19T13:55:34;3.95;;;1.35;;
39266;SDS011;24967;51.154;13.812;2023-09-19T13:58:00;2.80;;;0.90;;
39266;SDS011;24967;51.154;13.812;2023-09-19T14:00:28;2.00;;;0.88;;
39266;SDS011;24967;51.154;13.812;2023-09-19T14:02:55;1.63;;;1.00;;
39266;SDS011;24967;51.154;13.812;2023-09-19T14:05:21;2.05;;;1.25;;
39266;SDS011;24967;51.154;13.812;2023-09-19T14:07:48;1.48;;;1.38;;
39266;SDS011;24967;51.154;13.812;2023-09-19T14:10:14;1.08;;;0.75;;
39266;SDS011;24967;51.154;13.812;2023-09-19T14:12:41;1.45;;;1.00;;
39266;SDS011;24967;51.154;13.812;2023-09-19T14:15:11;1.77;;;0.90;;
39266;SDS011;24967;51.154;13.812;2023-09-19T14:17:39;1.10;;;1.00;;
39266;SDS011;24967;51.154;13.812;2023-09-19T14:20:07;1.10;;;1.00;;
39266;SDS011;24967;51.154;13.812;2023-09-19T14:22:35;1.55;;;1.25;;
39266;SDS011;24967;51.154;13.812;2023-09-19T14:25:02;1.10;;;1.00;;
39266;SDS011;24967;51.154;13.812;2023-09-19T14:27:29;2.25;;;1.20;;
39266;SDS011;24967;51.154;13.812;2023-09-19T14:29:55;1.40;;;1.10;;
39266;SDS011;24967;51.154;13.812;2023-09-19T14:32:22;1.42;;;1.08;;
39266;SDS011;24967;51.154;13.812;2023-09-19T14:34:50;1.10;;;1.00;;
39266;SDS011;24967;51.154;13.812;2023-09-19T14:37:17;1.30;;;1.20;;
39266;SDS011;24967;51.154;13.812;2023-09-19T14:39:46;1.55;;;1.00;;
39266;SDS011;24967;51.154;13.812;2023-09-19T14:42:13;3.50;;;0.98;;
39266;SDS011;24967;51.154;13.812;2023-09-19T14:44:42;1.15;;;1.02;;
39266;SDS011;24967;51.154;13.812;2023-09-19T14:47:09;1.23;;;1.05;;
39266;SDS011;24967;51.154;13.812;2023-09-19T14:49:38;1.38;;;0.90;;
39266;SDS011;24967;51.154;13.812;2023-09-19T14:52:07;1.88;;;1.30;;
39266;SDS011;24967;51.154;13.812;2023-09-19T14:54:34;1.58;;;0.90;;
39266;SDS011;24967;51.154;13.812;2023-09-19T14:57:02;1.20;;;0.98;;
39266;SDS011;24967;51.154;13.812;2023-09-19T14:59:30;1.65;;;0.90;;
39266;SDS011;24967;51.154;13.812;2023-09-19T15:01:56;2.03;;;1.10;;
39266;SDS011;24967;51.154;13.812;2023-09-19T15:04:23;1.48;;;1.27;;
39266;SDS011;24967;51.154;13.812;2023-09-19T15:06:50;2.80;;;1.10;;
39266;SDS011;24967;51.154;13.812;2023-09-19T15:09:21;2.70;;;1.30;;